Time;durP1;ratioP1;P1;durP2;ratioP2;P2;SDS_P1;SDS_P2;PMS_P1;PMS_P2;Temp;Humidity;BMP_temperature;BMP_pressure;BME280_temperature;BME280_humidity;BME280_pressure;Samples;Min_cycle;Max_cycle;Signal;HPM_P1;HPM_P2
2023/01/30 00:00:20;;;;;;;28.83;15.50;;;;;;;-143.48;95.75;118439.88;5094823;28;20485;-28
2023/01/30 00:02:46;;;;;;;28.92;14.52;;;;;;;-143.48;95.84;118439.88;5095368;28;20032;-29
2023/01/30 00:05:11;;;;;;;34.20;15.93;;;;;;;-143.48;95.93;118439.88;5093685;28;20095;-29
2023/01/30 00:07:36;;;;;;;29.17;13.88;;;;;;;-143.48;95.91;118439.88;5094712;28;20024;-29
2023/01/30 00:10:02;;;;;;;25.15;14.18;;;;;;;-143.48;96.31;118439.88;5094732;28;20107;-29
2023/01/30 00:12:27;;;;;;;30.85;14.18;;;;;;;-143.48;95.82;118439.88;5094589;28;20035;-29
2023/01/30 00:14:53;;;;;;;25.67;13.27;;;;;;;-143.48;95.95;118439.88;5094889;28;20107;-29
2023/01/30 00:17:18;;;;;;;32.20;13.82;;;;;;;-143.48;95.85;118439.88;5094702;28;20385;-29
2023/01/30 00:19:43;;;;;;;26.20;12.80;;;;;;;-143.48;96.11;118439.88;5094459;28;20028;-29
2023/01/30 00:22:08;;;;;;;30.88;13.73;;;;;;;-143.48;95.84;118439.88;5094773;28;20028;-29
2023/01/30 00:24:34;;;;;;;27.48;13.38;;;;;;;-143.48;95.59;118439.88;5094340;28;20027;-29
2023/01/30 00:26:59;;;;;;;26.77;12.73;;;;;;;-143.48;95.67;118439.88;5094556;28;20137;-29
2023/01/30 00:29:24;;;;;;;28.33;12.15;;;;;;;-143.48;95.31;118439.88;5094285;28;20016;-29
2023/01/30 00:31:49;;;;;;;25.98;11.45;;;;;;;-143.48;95.13;118439.88;5094326;28;20024;-29
2023/01/30 00:34:15;;;;;;;26.83;11.73;;;;;;;-143.48;95.47;118439.88;5094192;28;20020;-29
2023/01/30 00:36:40;;;;;;;27.65;11.95;;;;;;;-143.48;95.18;118439.88;5094178;28;20039;-29
2023/01/30 00:39:05;;;;;;;26.85;10.80;;;;;;;-143.48;95.08;118439.88;5094645;28;20056;-29
2023/01/30 00:47:04;;;;;;;23.90;10.02;;;;;;;-143.48;94.58;118439.88;5094018;28;20046;-29
2023/01/30 00:47:07;;;;;;;21.73;8.43;;;;;;;-143.48;94.00;118439.88;5094792;28;20129;-29
2023/01/30 00:49:33;;;;;;;12.85;7.05;;;;;;;-143.48;94.16;118439.88;5094229;28;20032;-29
2023/01/30 00:51:59;;;;;;;18.23;6.65;;;;;;;-143.48;93.56;118439.88;5094254;28;20031;-29
2023/01/30 00:54:24;;;;;;;15.52;6.10;;;;;;;-143.48;93.75;118439.88;5093857;28;20024;-29
2023/01/30 00:56:50;;;;;;;15.65;5.65;;;;;;;-143.48;93.42;118439.88;5094139;28;20048;-29
2023/01/30 00:59:15;;;;;;;22.15;6.57;;;;;;;-143.48;93.29;118439.88;5095019;28;20613;-29
2023/01/30 01:01:40;;;;;;;14.30;6.10;;;;;;;-143.48;93.42;118439.88;5093648;28;20020;-29
2023/01/30 01:04:07;;;;;;;16.95;7.07;;;;;;;-143.48;93.45;118439.88;5093365;28;20016;-28
2023/01/30 01:06:33;;;;;;;18.33;5.93;;;;;;;-143.48;93.64;118439.88;5093965;28;20073;-29
2023/01/30 01:08:58;;;;;;;18.67;6.40;;;;;;;-143.48;93.74;118439.88;5093767;28;20571;-29
2023/01/30 01:11:24;;;;;;;18.45;5.93;;;;;;;-143.48;94.51;118439.88;5094213;28;20107;-29
2023/01/30 01:13:51;;;;;;;14.27;5.72;;;;;;;-143.48;94.73;118439.88;5094126;28;20385;-29
2023/01/30 01:16:16;;;;;;;17.73;6.35;;;;;;;-143.48;94.59;118439.88;5093658;28;20436;-28
2023/01/30 01:18:42;;;;;;;16.80;5.63;;;;;;;-143.48;94.45;118439.88;5093581;28;20024;-36
2023/01/30 01:21:07;;;;;;;14.07;6.00;;;;;;;-143.48;94.94;118439.88;5093849;28;20035;-29
2023/01/30 01:23:32;;;;;;;19.08;5.32;;;;;;;-143.48;94.90;118439.88;5093466;28;20551;-29
2023/01/30 01:26:00;;;;;;;21.73;5.97;;;;;;;-143.48;95.80;118439.88;5093835;28;20027;-28
2023/01/30 01:28:26;;;;;;;18.02;5.88;;;;;;;-143.48;95.27;118439.88;5093491;28;20024;-29
2023/01/30 01:30:51;;;;;;;33.25;6.70;;;;;;;-143.48;95.12;118439.88;5093390;28;20085;-29
2023/01/30 01:33:17;;;;;;;14.13;5.75;;;;;;;-143.48;95.04;118439.88;5093572;28;20051;-29
2023/01/30 01:35:42;;;;;;;19.33;6.30;;;;;;;-143.48;96.02;118439.88;5093717;28;20347;-29
2023/01/30 01:38:07;;;;;;;21.02;6.15;;;;;;;-143.48;95.57;118439.88;5093988;28;20051;-28
2023/01/30 01:43:20;;;;;;;20.40;6.57;;;;;;;-143.48;96.02;118439.88;5094232;28;20469;-29
2023/01/30 01:45:50;;;;;;;18.35;5.80;;;;;;;-143.48;95.87;118439.88;5093148;28;20051;-29
2023/01/30 01:48:43;;;;;;;18.83;5.32;;;;;;;-143.48;96.21;118439.88;5093305;28;20050;-29
2023/01/30 01:51:36;;;;;;;17.73;5.63;;;;;;;-143.48;97.24;118439.88;5093257;28;20035;-29
2023/01/30 01:54:08;;;;;;;24.40;5.93;;;;;;;-143.48;97.17;118439.88;5092671;28;20085;-29
2023/01/30 01:56:36;;;;;;;17.48;5.85;;;;;;;-143.48;97.79;118439.88;5093726;28;20035;-29
2023/01/30 01:59:12;;;;;;;22.55;5.72;;;;;;;-143.48;97.43;118439.88;5093488;28;20417;-29
2023/01/30 02:01:38;;;;;;;18.38;5.88;;;;;;;-143.48;97.98;118439.88;5093258;28;20069;-29
2023/01/30 02:04:08;;;;;;;14.93;4.75;;;;;;;-143.48;97.49;118439.88;5093503;28;20020;-29
2023/01/30 02:06:36;;;;;;;20.20;5.15;;;;;;;-143.48;97.99;118439.88;5093428;28;20027;-29
2023/01/30 02:09:06;;;;;;;23.27;5.20;;;;;;;-143.48;98.18;118439.88;5093109;28;20028;-29
2023/01/30 02:11:53;;;;;;;20.13;4.97;;;;;;;-143.48;98.13;118439.88;5093128;28;20020;-29
2023/01/30 02:14:19;;;;;;;18.75;4.78;;;;;;;-143.48;98.59;118439.88;5074921;28;20038;-29
2023/01/30 02:16:46;;;;;;;18.73;4.55;;;;;;;-143.48;98.33;118439.88;5097150;28;20024;-29
2023/01/30 02:19:30;;;;;;;16.13;4.30;;;;;;;-143.48;98.04;118439.88;5096791;28;20020;-29
2023/01/30 02:22:36;;;;;;;14.32;5.05;;;;;;;-143.48;98.74;118439.88;5096846;28;20016;-29
2023/01/30 02:25:04;;;;;;;15.82;4.18;;;;;;;-143.48;98.49;118439.88;5086025;28;20047;-29
2023/01/30 02:27:47;;;;;;;15.85;4.38;;;;;;;-143.48;98.81;118439.88;5096697;28;20073;-29
2023/01/30 02:30:33;;;;;;;14.60;4.25;;;;;;;-143.48;99.14;118439.88;5097174;28;20172;-29
2023/01/30 02:33:19;;;;;;;16.92;4.10;;;;;;;-143.48;99.12;118439.88;5096886;28;20123;-30
2023/01/30 02:35:50;;;;;;;16.33;4.13;;;;;;;-143.48;99.28;118439.88;5097062;28;20110;-29
2023/01/30 02:38:39;;;;;;;14.73;4.10;;;;;;;-143.48;99.03;118439.88;5096479;28;20024;-28
2023/01/30 02:41:13;;;;;;;15.77;4.10;;;;;;;-143.48;98.90;118439.88;5096606;28;20036;-29
2023/01/30 02:43:50;;;;;;;14.55;3.80;;;;;;;-143.48;99.22;118439.88;5096702;28;20034;-29
2023/01/30 02:46:24;;;;;;;23.13;3.90;;;;;;;-143.48;99.25;118439.88;5096197;28;20036;-29
2023/01/30 02:49:13;;;;;;;16.02;3.90;;;;;;;-143.48;99.17;118439.88;5096561;28;20138;-29
2023/01/30 02:51:39;;;;;;;12.93;3.67;;;;;;;-143.48;98.95;118439.88;5096822;28;20058;-29
2023/01/30 02:54:06;;;;;;;16.77;3.80;;;;;;;-143.48;99.07;118439.88;5096873;28;20020;-29
2023/01/30 02:57:01;;;;;;;16.25;3.55;;;;;;;-143.48;99.34;118439.88;5096712;28;20485;-29
2023/01/30 02:59:32;;;;;;;15.52;3.72;;;;;;;-143.48;99.03;118439.88;5078762;28;20032;-28
2023/01/30 03:02:14;;;;;;;15.07;3.50;;;;;;;-143.48;98.99;118439.88;5095999;28;20083;-29
2023/01/30 03:04:59;;;;;;;19.60;3.58;;;;;;;-143.48;98.67;118439.88;5095964;28;20024;-29
2023/01/30 03:07:33;;;;;;;18.08;3.97;;;;;;;-143.48;98.27;118439.88;5096236;28;20358;-29
2023/01/30 03:10:23;;;;;;;17.65;3.42;;;;;;;-143.48;97.75;118439.88;5095942;28;20058;-29
2023/01/30 03:13:17;;;;;;;17.52;3.90;;;;;;;-143.48;97.82;118439.88;5095762;28;20035;-29
2023/01/30 03:15:58;;;;;;;16.50;3.65;;;;;;;-143.48;97.58;118439.88;5040798;28;20049;-29
2023/01/30 03:18:24;;;;;;;11.95;3.15;;;;;;;-143.48;97.22;118439.88;5096072;28;20020;-29
2023/01/30 03:20:50;;;;;;;18.25;3.58;;;;;;;-143.48;97.86;118439.88;5096610;28;20450;-29
2023/01/30 03:23:16;;;;;;;21.38;4.30;;;;;;;-143.48;97.33;118439.88;5095913;28;20043;-29
2023/01/30 03:25:43;;;;;;;17.02;3.67;;;;;;;-143.48;97.97;118439.88;5095242;28;20486;-29
2023/01/30 03:28:10;;;;;;;19.23;3.67;;;;;;;-143.48;97.99;118439.88;5095636;28;20056;-29
2023/01/30 03:30:36;;;;;;;17.60;3.40;;;;;;;-143.48;97.83;118439.88;5095465;28;20107;-29
2023/01/30 03:33:01;;;;;;;22.10;3.58;;;;;;;-143.48;97.65;118439.88;5095746;28;20047;-29
2023/01/30 03:35:28;;;;;;;19.75;3.60;;;;;;;-143.48;97.72;118439.88;5095312;28;20020;-29
2023/01/30 03:37:54;;;;;;;15.85;3.63;;;;;;;-143.48;97.68;118439.88;5095353;28;20101;-29
2023/01/30 03:40:19;;;;;;;18.08;3.70;;;;;;;-143.48;97.63;118439.88;5095335;28;20020;-29
2023/01/30 03:42:44;;;;;;;18.05;3.40;;;;;;;-143.48;97.17;118439.88;5095884;28;20024;-29
2023/01/30 03:45:10;;;;;;;11.43;3.25;;;;;;;-143.48;97.19;118439.88;5095209;28;20531;-29
2023/01/30 03:47:36;;;;;;;15.48;3.20;;;;;;;-143.48;96.83;118439.88;5095611;28;20071;-29
2023/01/30 03:50:01;;;;;;;21.38;3.53;;;;;;;-143.48;96.65;118439.88;5095433;28;20371;-30
2023/01/30 03:52:26;;;;;;;16.20;2.90;;;;;;;-143.48;97.36;118439.88;5095178;28;20533;-30
2023/01/30 03:54:52;;;;;;;16.73;3.53;;;;;;;-143.48;96.06;118439.88;5095005;28;20466;-30
2023/01/30 03:57:17;;;;;;;14.70;3.55;;;;;;;-143.48;96.50;118439.88;5095201;28;20051;-30
2023/01/30 03:59:42;;;;;;;18.35;3.50;;;;;;;-143.48;96.06;118439.88;5095164;28;20063;-30
2023/01/30 04:02:08;;;;;;;21.92;3.40;;;;;;;-143.48;96.29;118439.88;5095181;28;20031;-30
2023/01/30 04:04:34;;;;;;;16.70;3.33;;;;;;;-143.48;96.12;118439.88;5095089;28;20016;-30
2023/01/30 04:06:59;;;;;;;21.00;3.67;;;;;;;-143.48;95.99;118439.88;5095074;28;20024;-30
2023/01/30 04:09:25;;;;;;;14.65;3.40;;;;;;;-143.48;96.24;118439.88;5094964;28;20105;-30
2023/01/30 04:11:50;;;;;;;17.75;3.45;;;;;;;-143.48;96.47;118439.88;5095251;28;20051;-30
2023/01/30 04:14:15;;;;;;;18.70;3.30;;;;;;;-143.48;96.16;118439.88;5094901;28;20401;-30
2023/01/30 04:16:40;;;;;;;15.82;3.30;;;;;;;-143.48;96.38;118439.88;5094626;28;20039;-30
2023/01/30 04:19:06;;;;;;;14.90;3.28;;;;;;;-143.48;95.67;118439.88;5094436;28;20024;-30
2023/01/30 04:21:31;;;;;;;15.25;3.20;;;;;;;-143.48;95.36;118439.88;5094794;28;20106;-29
2023/01/30 04:23:56;;;;;;;26.60;4.18;;;;;;;-143.48;95.42;118439.88;5094772;28;20473;-29
2023/01/30 04:26:22;;;;;;;16.40;3.70;;;;;;;-143.48;94.96;118439.88;5094482;28;20504;-29
2023/01/30 04:28:47;;;;;;;17.90;3.40;;;;;;;-143.48;95.00;118439.88;5094423;28;20030;-28
2023/01/30 04:31:12;;;;;;;23.02;3.70;;;;;;;-143.48;94.38;118439.88;5094496;28;20035;-29
2023/01/30 04:33:39;;;;;;;14.18;3.03;;;;;;;-143.48;94.98;118439.88;5094800;28;20370;-29
2023/01/30 04:36:06;;;;;;;13.85;2.80;;;;;;;-143.48;93.89;118439.88;5094175;28;20028;-29
2023/01/30 04:38:33;;;;;;;18.25;3.20;;;;;;;-143.48;94.25;118439.88;5093490;28;20118;-29
2023/01/30 04:40:59;;;;;;;21.23;3.53;;;;;;;-143.48;94.60;118439.88;5094070;28;20068;-29
2023/01/30 04:43:26;;;;;;;10.82;2.60;;;;;;;-143.48;93.38;118439.88;5094131;28;20032;-29
2023/01/30 04:45:51;;;;;;;13.02;3.20;;;;;;;-143.48;93.47;118439.88;5093859;28;20043;-29
2023/01/30 04:48:19;;;;;;;19.13;3.80;;;;;;;-143.48;93.01;118439.88;5094360;28;20034;-29
2023/01/30 04:50:47;;;;;;;18.55;3.85;;;;;;;-143.48;92.71;118439.88;5094013;28;20020;-29
2023/01/30 04:53:13;;;;;;;16.90;3.28;;;;;;;-143.48;92.42;118439.88;5094319;28;20034;-28
2023/01/30 04:55:38;;;;;;;12.32;2.83;;;;;;;-143.48;92.21;118439.88;5093871;28;20028;-29
2023/01/30 04:58:04;;;;;;;14.02;3.15;;;;;;;-143.48;91.64;118439.88;5094206;28;20028;-29
2023/01/30 05:00:29;;;;;;;16.17;2.83;;;;;;;-143.48;90.86;118439.88;5093836;28;20032;-29
2023/01/30 05:02:55;;;;;;;20.55;3.60;;;;;;;-143.48;89.50;118439.88;5093675;28;20153;-29
2023/01/30 05:05:21;;;;;;;16.58;2.97;;;;;;;-143.48;89.44;118439.88;5093747;28;20027;-29
2023/01/30 05:07:47;;;;;;;17.05;3.58;;;;;;;-143.48;89.59;118439.88;5094356;28;20518;-29
2023/01/30 05:10:12;;;;;;;20.23;3.40;;;;;;;-143.48;89.32;118439.88;5093697;28;20051;-29
2023/01/30 05:12:38;;;;;;;20.92;3.10;;;;;;;-143.48;89.88;118439.88;5093602;28;20036;-29
2023/01/30 05:15:03;;;;;;;16.55;2.83;;;;;;;-143.48;88.87;118439.88;5093508;28;20423;-29
2023/01/30 05:17:29;;;;;;;21.13;3.30;;;;;;;-143.48;88.93;118439.88;5094387;28;20051;-29
2023/01/30 05:19:54;;;;;;;12.50;2.70;;;;;;;-143.48;88.53;118439.88;5093805;28;20095;-29
2023/01/30 05:22:19;;;;;;;16.35;3.13;;;;;;;-143.48;87.87;118439.88;5093598;28;20069;-29
2023/01/30 05:24:45;;;;;;;19.95;2.90;;;;;;;-143.48;87.42;118439.88;5093722;28;20065;-29
2023/01/30 05:27:10;;;;;;;14.32;2.80;;;;;;;-143.48;86.68;118439.88;5093839;28;20107;-29
2023/01/30 05:29:35;;;;;;;16.83;3.28;;;;;;;-143.48;87.47;118439.88;5093708;28;20028;-29
2023/01/30 05:32:02;;;;;;;22.60;3.35;;;;;;;-143.48;86.12;118439.88;5093641;28;20420;-29
2023/01/30 05:34:27;;;;;;;17.23;2.70;;;;;;;-143.48;86.70;118439.88;5093901;28;20024;-29
2023/01/30 05:36:52;;;;;;;19.60;2.88;;;;;;;-143.48;85.93;118439.88;5093621;28;20477;-29
2023/01/30 05:39:18;;;;;;;15.93;2.58;;;;;;;-143.48;85.52;118439.88;5093425;28;20497;-29
2023/01/30 05:41:43;;;;;;;18.45;2.90;;;;;;;-143.48;84.69;118439.88;5093370;28;20027;-29
2023/01/30 05:44:08;;;;;;;19.63;2.88;;;;;;;-143.48;84.60;118439.88;5093430;28;20428;-29
2023/01/30 05:46:34;;;;;;;31.80;5.22;;;;;;;-143.48;84.37;118439.88;5093112;28;20044;-29
2023/01/30 05:48:59;;;;;;;23.08;3.33;;;;;;;-143.48;85.73;118439.88;5094309;28;20028;-29
2023/01/30 05:51:26;;;;;;;22.85;3.30;;;;;;;-143.48;84.20;118439.88;5079263;28;20020;-29
2023/01/30 05:53:52;;;;;;;23.75;2.92;;;;;;;-143.48;82.86;118439.88;5097813;28;20103;-29
2023/01/30 05:56:18;;;;;;;30.73;4.65;;;;;;;-143.48;82.53;118439.88;5079179;28;20115;-29
2023/01/30 05:58:49;;;;;;;27.73;3.05;;;;;;;-143.48;82.63;118439.88;5097725;28;20020;-29
2023/01/30 06:01:14;;;;;;;22.40;2.95;;;;;;;-143.48;83.29;118439.88;5097255;28;20035;-29
2023/01/30 06:03:39;;;;;;;26.55;3.33;;;;;;;-143.48;82.20;118439.88;5097716;28;20025;-29
2023/01/30 06:06:05;;;;;;;17.63;2.50;;;;;;;-143.48;79.92;118439.88;5097345;28;20036;-29
2023/01/30 06:08:32;;;;;;;25.50;3.45;;;;;;;-143.48;79.77;118439.88;5097838;28;20020;-29
2023/01/30 06:11:01;;;;;;;27.80;2.75;;;;;;;-143.48;78.40;118439.88;5097314;28;20024;-29
2023/01/30 06:13:27;;;;;;;14.35;2.38;;;;;;;-143.48;79.30;118439.88;5097232;28;20373;-29
2023/01/30 06:15:52;;;;;;;14.88;2.70;;;;;;;-143.48;78.22;118439.88;5096984;28;20032;-29
2023/01/30 06:18:18;;;;;;;17.40;2.85;;;;;;;-143.48;78.01;118439.88;5096941;28;20157;-29
2023/01/30 06:20:48;;;;;;;26.65;2.97;;;;;;;-143.48;77.72;118439.88;5097055;28;20020;-29
2023/01/30 06:23:13;;;;;;;25.98;3.97;;;;;;;-143.48;78.12;118439.88;5097341;28;20031;-29
2023/01/30 06:25:42;;;;;;;25.70;3.20;;;;;;;-143.48;77.91;118439.88;5095646;28;20466;-29
2023/01/30 06:28:07;;;;;;;22.95;3.40;;;;;;;-143.48;79.22;118439.88;5096585;28;20024;-29
2023/01/30 06:30:33;;;;;;;26.73;3.30;;;;;;;-143.48;80.19;118439.88;5096780;28;20039;-29
2023/01/30 06:32:58;;;;;;;19.27;3.20;;;;;;;-143.48;82.10;118439.88;5096932;28;20471;-30
2023/01/30 06:35:24;;;;;;;22.15;3.08;;;;;;;-143.48;81.11;118439.88;5097025;28;20374;-29
2023/01/30 06:37:49;;;;;;;19.60;3.42;;;;;;;-143.48;81.21;118439.88;5096503;28;20024;-30
2023/01/30 06:40:15;;;;;;;25.80;3.53;;;;;;;-143.48;81.82;118439.88;5096756;28;20062;-29
2023/01/30 06:42:45;;;;;;;25.25;3.70;;;;;;;-143.48;80.87;118439.88;5095660;28;20315;-29
2023/01/30 06:45:11;;;;;;;21.40;3.03;;;;;;;-143.48;80.77;118439.88;5096368;28;20478;-29
2023/01/30 06:47:47;;;;;;;34.97;4.53;;;;;;;-143.48;82.00;118439.88;5096814;28;20046;-29
2023/01/30 06:50:13;;;;;;;23.13;3.28;;;;;;;-143.48;81.44;118439.88;5096568;28;20020;-29
2023/01/30 06:52:42;;;;;;;30.35;3.63;;;;;;;-143.48;80.09;118439.88;5096879;28;20137;-28
2023/01/30 06:55:09;;;;;;;21.95;2.80;;;;;;;-143.48;80.29;118439.88;5096272;28;20016;-29
2023/01/30 06:57:34;;;;;;;31.67;3.85;;;;;;;-143.48;79.20;118439.88;5095973;28;20027;-29
2023/01/30 07:00:00;;;;;;;21.08;2.90;;;;;;;-143.48;79.55;118439.88;5096144;28;20032;-29
2023/01/30 07:02:33;;;;;;;24.55;3.25;;;;;;;-143.48;78.85;118439.88;5096228;28;20028;-29
2023/01/30 07:04:58;;;;;;;;;;;;;;;-143.48;78.77;118439.88;5062074;28;20027;-29
2023/01/30 07:07:24;;;;;;;24.10;3.30;;;;;;;-143.48;78.21;118439.88;5096038;28;19908;-32
2023/01/30 07:09:50;;;;;;;23.95;3.05;;;;;;;-143.48;77.88;118439.88;5078192;28;20027;-29
2023/01/30 07:12:15;;;;;;;21.15;2.83;;;;;;;-143.48;77.96;118439.88;5096086;28;20024;-29
2023/01/30 07:14:40;;;;;;;22.30;2.97;;;;;;;-143.48;78.30;118439.88;5094404;28;20069;-38
2023/01/30 07:17:05;;;;;;;26.33;4.20;;;;;;;-143.48;78.56;118439.88;5095647;28;20035;-38
2023/01/30 07:19:31;;;;;;;21.85;3.15;;;;;;;-143.48;78.87;118439.88;5095860;28;20118;-37
2023/01/30 07:21:56;;;;;;;23.77;3.40;;;;;;;-143.48;78.20;118439.88;5095811;28;20044;-36
2023/01/30 07:24:22;;;;;;;30.95;3.97;;;;;;;-143.48;77.61;118439.88;5095587;28;20024;-36
2023/01/30 07:26:47;;;;;;;31.88;3.50;;;;;;;-143.48;78.07;118439.88;5095366;28;20024;-37
2023/01/30 07:29:13;;;;;;;23.95;3.42;;;;;;;-143.48;78.75;118439.88;5095716;28;20024;-37
2023/01/30 07:31:38;;;;;;;29.35;3.70;;;;;;;-143.48;77.94;118439.88;5094588;28;20032;-35
2023/01/30 07:34:04;;;;;;;21.58;3.30;;;;;;;-143.48;76.75;118439.88;5095603;28;20027;-35
2023/01/30 07:36:32;;;;;;;19.48;3.92;;;;;;;-143.48;77.52;118439.88;5076587;28;20020;-36
2023/01/30 07:38:58;;;;;;;23.17;2.90;;;;;;;-143.48;76.69;118439.88;5095479;28;20057;-29
2023/01/30 07:41:23;;;;;;;27.15;3.80;;;;;;;-143.48;77.14;118439.88;5095579;28;20462;-29
2023/01/30 07:43:48;;;;;;;24.85;3.08;;;;;;;-143.48;77.83;118439.88;5094637;28;20450;-29
2023/01/30 07:46:14;;;;;;;32.08;3.75;;;;;;;-143.48;78.04;118439.88;5095007;28;20054;-29
2023/01/30 07:48:40;;;;;;;29.33;3.50;;;;;;;-143.48;76.54;118439.88;5095229;28;20096;-29
2023/01/30 07:51:09;;;;;;;27.48;3.45;;;;;;;-143.48;77.09;118439.88;5076825;28;20028;-29
2023/01/30 07:53:35;;;;;;;18.40;2.88;;;;;;;-143.48;76.76;118439.88;5076897;28;20428;-29
2023/01/30 07:56:08;;;;;;;27.08;3.53;;;;;;;-143.48;76.07;118439.88;5095200;28;20032;-29
2023/01/30 07:58:34;;;;;;;27.75;2.97;;;;;;;-143.48;76.00;118439.88;5095030;28;20028;-29
2023/01/30 08:00:59;;;;;;;19.67;3.50;;;;;;;-143.48;75.67;118439.88;5094902;28;20471;-29
2023/01/30 08:03:25;;;;;;;26.17;3.20;;;;;;;-143.48;74.48;118439.88;5094810;28;20072;-29
2023/01/30 08:05:52;;;;;;;19.42;3.40;;;;;;;-143.48;75.56;118439.88;5094771;28;20024;-29
2023/01/30 08:08:17;;;;;;;21.52;3.60;;;;;;;-143.48;75.33;118439.88;5094957;28;20024;-29
2023/01/30 08:10:42;;;;;;;24.05;3.42;;;;;;;-143.48;75.27;118439.88;5094507;28;20027;-29
2023/01/30 08:13:08;;;;;;;23.73;3.60;;;;;;;-143.48;74.64;118439.88;5093437;28;20492;-29
2023/01/30 08:15:33;;;;;;;23.65;3.58;;;;;;;-143.48;73.65;118439.88;5094972;28;20038;-29
2023/01/30 08:17:58;;;;;;;30.40;3.35;;;;;;;-143.48;73.59;118439.88;5094360;28;20081;-29
2023/01/30 08:20:25;;;;;;;16.65;3.05;;;;;;;-143.48;73.98;118439.88;5094801;28;20024;-29
2023/01/30 08:22:51;;;;;;;30.58;3.65;;;;;;;-143.48;74.37;118439.88;5094698;28;20020;-29
2023/01/30 08:25:17;;;;;;;20.92;3.35;;;;;;;-143.48;73.68;118439.88;5094679;28;20020;-29
2023/01/30 08:27:42;;;;;;;22.70;2.97;;;;;;;-143.48;73.05;118439.88;5094379;28;20031;-29
2023/01/30 08:30:09;;;;;;;17.13;2.83;;;;;;;-143.48;72.77;118439.88;5094613;28;20069;-29
2023/01/30 08:32:34;;;;;;;21.77;2.70;;;;;;;-143.48;72.68;118439.88;5094100;28;20102;-29
2023/01/30 08:34:59;;;;;;;25.02;3.33;;;;;;;-143.48;72.79;118439.88;5094041;28;20107;-29
2023/01/30 08:37:25;;;;;;;23.58;3.20;;;;;;;-143.48;72.15;118439.88;5094241;28;20486;-29
2023/01/30 08:39:50;;;;;;;19.70;3.50;;;;;;;-143.48;71.85;118439.88;5094745;28;20024;-29
2023/01/30 08:42:15;;;;;;;27.98;3.63;;;;;;;-143.48;71.84;118439.88;5094069;28;20157;-29
2023/01/30 08:44:41;;;;;;;21.15;3.00;;;;;;;-143.48;72.90;118439.88;5093980;28;20033;-29
2023/01/30 08:47:06;;;;;;;24.08;2.80;;;;;;;-143.48;72.21;118439.88;5094609;28;20066;-29
2023/01/30 08:49:31;;;;;;;19.83;2.95;;;;;;;-143.48;72.38;118439.88;5094279;28;20099;-29
2023/01/30 08:51:58;;;;;;;19.38;3.05;;;;;;;-143.48;72.01;118439.88;5094764;28;20024;-29
2023/01/30 08:54:23;;;;;;;26.40;3.53;;;;;;;-143.48;72.61;118439.88;5094293;28;20425;-29
2023/01/30 08:56:48;;;;;;;22.15;2.92;;;;;;;-143.48;71.98;118439.88;5093810;28;20032;-29
2023/01/30 08:59:14;;;;;;;22.30;3.10;;;;;;;-143.48;72.45;118439.88;5093881;28;20066;-29
2023/01/30 09:01:39;;;;;;;25.52;3.38;;;;;;;-143.48;73.46;118439.88;5093800;28;20059;-29
2023/01/30 09:04:04;;;;;;;22.13;3.38;;;;;;;-143.48;72.72;118439.88;5094108;28;20016;-29
2023/01/30 09:06:30;;;;;;;21.20;3.50;;;;;;;-143.48;72.54;118439.88;5093903;28;20054;-29
2023/01/30 09:08:55;;;;;;;28.73;3.75;;;;;;;-143.48;72.29;118439.88;5094006;28;20020;-30
2023/01/30 09:11:20;;;;;;;25.05;4.05;;;;;;;-143.48;72.51;118439.88;5093283;28;20031;-29
2023/01/30 09:13:46;;;;;;;24.33;3.17;;;;;;;-143.48;72.12;118439.88;5092669;28;20040;-29
2023/01/30 09:16:11;;;;;;;19.33;3.03;;;;;;;-143.48;72.69;118439.88;5093527;28;20031;-29
2023/01/30 09:18:42;;;;;;;28.02;3.67;;;;;;;-143.48;72.24;118439.88;5093736;28;20016;-29
2023/01/30 09:21:09;;;;;;;25.00;3.60;;;;;;;-143.48;72.02;118439.88;5093188;28;20103;-29
2023/01/30 09:23:34;;;;;;;23.90;3.28;;;;;;;-143.48;71.47;118439.88;5093135;28;20531;-29
2023/01/30 09:26:01;;;;;;;32.97;3.33;;;;;;;-143.48;71.57;118439.88;5093650;28;20107;-29
2023/01/30 09:28:26;;;;;;;25.40;3.10;;;;;;;-143.48;71.31;118439.88;5093218;28;20028;-29
2023/01/30 09:30:52;;;;;;;21.67;3.38;;;;;;;-143.48;70.36;118439.88;5093281;28;20024;-29
2023/01/30 09:33:19;;;;;;;28.63;3.97;;;;;;;-143.48;70.15;118439.88;5093733;28;20066;-29
2023/01/30 09:35:48;;;;;;;19.58;2.60;;;;;;;-143.48;69.94;118439.88;5093658;28;20059;-29
2023/01/30 09:38:13;;;;;;;25.30;2.92;;;;;;;-143.48;71.05;118439.88;5093598;28;20024;-29
2023/01/30 09:40:53;;;;;;;19.35;2.88;;;;;;;-143.48;70.36;118439.88;5093672;28;20478;-29
2023/01/30 09:43:27;;;;;;;23.27;3.20;;;;;;;-143.48;70.75;118439.88;5093211;28;20206;-29
2023/01/30 09:46:08;;;;;;;27.63;3.28;;;;;;;-143.48;70.62;118439.88;5093178;28;20040;-29
2023/01/30 09:48:45;;;;;;;21.35;3.35;;;;;;;-143.48;71.24;118439.88;5093304;28;20098;-29
2023/01/30 09:51:10;;;;;;;18.73;3.05;;;;;;;-143.48;70.85;118439.88;5093172;28;20024;-29
2023/01/30 09:53:40;;;;;;;21.98;3.03;;;;;;;-143.48;71.48;118439.88;5093242;28;20036;-29
2023/01/30 09:56:05;;;;;;;14.68;2.92;;;;;;;-143.48;71.83;118439.88;5092672;28;20125;-27
2023/01/30 09:58:59;;;;;;;22.38;3.35;;;;;;;-143.48;71.38;118439.88;5093188;28;20116;-29
2023/01/30 10:01:43;;;;;;;22.60;3.10;;;;;;;-143.48;71.00;118439.88;5093442;28;20054;-29
2023/01/30 10:04:33;;;;;;;22.13;2.92;;;;;;;-143.48;70.42;118439.88;5093360;28;20031;-29
2023/01/30 10:07:24;;;;;;;22.50;2.53;;;;;;;-143.48;70.74;118439.88;5093362;28;20417;-29
2023/01/30 10:10:03;;;;;;;24.60;3.80;;;;;;;-143.48;71.08;118439.88;5093007;28;20031;-29
2023/01/30 10:12:53;;;;;;;19.33;2.78;;;;;;;-143.48;70.50;118439.88;5093007;28;20115;-27
2023/01/30 10:15:45;;;;;;;26.65;3.65;;;;;;;-143.48;70.36;118439.88;5093000;28;20063;-26
2023/01/30 10:18:29;;;;;;;19.55;2.88;;;;;;;-143.48;70.08;118439.88;5093365;28;20475;-29
2023/01/30 10:21:10;;;;;;;25.42;3.53;;;;;;;-143.48;69.50;118439.88;5093307;28;20348;-29
2023/01/30 10:23:59;;;;;;;26.35;3.25;;;;;;;-143.48;69.75;118439.88;5092917;28;20378;-28
2023/01/30 10:26:27;;;;;;;23.70;3.20;;;;;;;-143.48;69.35;118439.88;5092909;28;20028;-29
2023/01/30 10:29:08;;;;;;;21.90;3.10;;;;;;;-143.48;69.87;118439.88;5092984;28;20028;-29
2023/01/30 10:31:57;;;;;;;24.17;3.15;;;;;;;-143.48;70.50;118439.88;5074691;28;20038;-27
2023/01/30 10:34:35;;;;;;;23.65;3.03;;;;;;;-143.48;70.07;118439.88;5093213;28;20490;-27
2023/01/30 10:37:12;;;;;;;26.20;3.30;;;;;;;-143.48;70.41;118439.88;5095291;28;20046;-27
2023/01/30 10:39:47;;;;;;;22.70;3.17;;;;;;;-143.48;69.85;118439.88;5096422;28;20028;-29
2023/01/30 10:42:18;;;;;;;22.73;3.15;;;;;;;-143.48;69.92;118439.88;5096429;28;20024;-29
2023/01/30 10:44:44;;;;;;;29.27;3.83;;;;;;;-143.48;68.96;118439.88;5096765;28;20019;-29
2023/01/30 10:47:12;;;;;;;26.00;3.33;;;;;;;-143.48;68.59;118439.88;5096535;28;20036;-27
2023/01/30 10:49:43;;;;;;;20.20;3.13;;;;;;;-143.48;65.94;118439.88;5096484;28;20463;-27
2023/01/30 10:52:33;;;;;;;24.17;3.70;;;;;;;-143.48;50.63;118439.88;5096244;28;20089;-27
2023/01/30 10:55:33;;;;;;;24.88;3.85;;;;;;;-143.48;50.77;118439.88;5096213;28;20065;-27
2023/01/30 10:58:31;;;;;;;26.70;4.03;;;;;;;-143.48;56.54;118439.88;5096381;28;20055;-27
2023/01/30 11:01:07;;;;;;;24.77;3.95;;;;;;;-143.48;59.66;118439.88;5096589;28;20020;-29
2023/01/30 11:03:45;;;;;;;21.20;3.40;;;;;;;-143.48;60.99;118439.88;5096171;28;20028;-29
2023/01/30 11:06:15;;;;;;;21.95;3.67;;;;;;;-143.48;59.82;118439.88;5096129;28;20451;-28
2023/01/30 11:08:41;;;;;;;30.23;4.10;;;;;;;-143.48;61.42;118439.88;5096027;28;20043;-27
2023/01/30 11:11:27;;;;;;;23.73;3.45;;;;;;;-143.48;57.68;118439.88;5095912;28;20371;-27
2023/01/30 11:14:04;;;;;;;24.65;3.65;;;;;;;-143.48;61.45;118439.88;5095988;28;20116;-29
2023/01/30 11:16:30;;;;;;;24.65;3.72;;;;;;;-143.48;62.64;118439.88;5095771;28;20028;-27